sensor_id;sensor_type;location;lat;lon;timestamp;P1;durP1;ratioP1;P2;durP2;ratioP2
73452;SDS011;61687;56.232;43.854;2022-12-24T00:02:22;18.45;;;10.15;;
73452;SDS011;61687;56.232;43.854;2022-12-24T00:04:48;21.40;;;11.45;;
73452;SDS011;61687;56.232;43.854;2022-12-24T00:07:14;22.67;;;10.57;;
73452;SDS011;61687;56.232;43.854;2022-12-24T00:09:40;21.42;;;11.50;;
73452;SDS011;61687;56.232;43.854;2022-12-24T00:12:05;20.92;;;11.20;;
73452;SDS011;61687;56.232;43.854;2022-12-24T00:14:31;19.23;;;10.45;;
73452;SDS011;61687;56.232;43.854;2022-12-24T00:16:57;21.88;;;11.50;;
73452;SDS011;61687;56.232;43.854;2022-12-24T00:19:23;21.33;;;10.98;;
73452;SDS011;61687;56.232;43.854;2022-12-24T00:21:49;26.42;;;12.30;;
73452;SDS011;61687;56.232;43.854;2022-12-24T00:24:15;21.80;;;11.93;;
73452;SDS011;61687;56.232;43.854;2022-12-24T00:26:41;23.85;;;11.27;;
73452;SDS011;61687;56.232;43.854;2022-12-24T00:29:07;22.02;;;10.93;;
73452;SDS011;61687;56.232;43.854;2022-12-24T00:31:35;24.95;;;11.48;;
73452;SDS011;61687;56.232;43.854;2022-12-24T00:34:01;23.00;;;11.68;;
73452;SDS011;61687;56.232;43.854;2022-12-24T00:36:27;23.85;;;12.10;;
73452;SDS011;61687;56.232;43.854;2022-12-24T00:38:52;24.23;;;10.70;;
73452;SDS011;61687;56.232;43.854;2022-12-24T00:41:19;20.60;;;10.88;;
73452;SDS011;61687;56.232;43.854;2022-12-24T00:43:54;22.52;;;12.05;;
73452;SDS011;61687;56.232;43.854;2022-12-24T00:46:23;22.63;;;10.98;;
73452;SDS011;61687;56.232;43.854;2022-12-24T00:48:49;25.58;;;12.05;;
73452;SDS011;61687;56.232;43.854;2022-12-24T00:51:15;21.55;;;11.57;;
73452;SDS011;61687;56.232;43.854;2022-12-24T00:53:42;24.25;;;11.63;;
73452;SDS011;61687;56.232;43.854;2022-12-24T00:56:08;27.23;;;12.57;;
73452;SDS011;61687;56.232;43.854;2022-12-24T00:58:34;23.05;;;11.27;;
73452;SDS011;61687;56.232;43.854;2022-12-24T01:01:00;22.42;;;11.75;;
73452;SDS011;61687;56.232;43.854;2022-12-24T01:03:26;21.13;;;10.73;;
73452;SDS011;61687;56.232;43.854;2022-12-24T01:06:02;22.55;;;10.80;;
73452;SDS011;61687;56.232;43.854;2022-12-24T01:08:32;22.85;;;12.27;;
73452;SDS011;61687;56.232;43.854;2022-12-24T01:11:00;23.67;;;11.95;;
73452;SDS011;61687;56.232;43.854;2022-12-24T01:13:27;23.95;;;11.77;;
73452;SDS011;61687;56.232;43.854;2022-12-24T01:15:55;22.50;;;11.47;;
73452;SDS011;61687;56.232;43.854;2022-12-24T01:18:21;24.90;;;11.13;;
73452;SDS011;61687;56.232;43.854;2022-12-24T01:20:59;26.00;;;12.15;;
73452;SDS011;61687;56.232;43.854;2022-12-24T01:23:27;25.77;;;12.63;;
73452;SDS011;61687;56.232;43.854;2022-12-24T01:25:54;23.98;;;11.32;;
73452;SDS011;61687;56.232;43.854;2022-12-24T01:28:20;25.20;;;12.80;;
73452;SDS011;61687;56.232;43.854;2022-12-24T01:30:47;27.45;;;12.45;;
73452;SDS011;61687;56.232;43.854;2022-12-24T01:33:13;27.05;;;13.05;;
73452;SDS011;61687;56.232;43.854;2022-12-24T01:35:39;24.00;;;11.48;;
73452;SDS011;61687;56.232;43.854;2022-12-24T01:38:06;23.45;;;11.68;;
73452;SDS011;61687;56.232;43.854;2022-12-24T01:40:32;25.77;;;12.47;;
73452;SDS011;61687;56.232;43.854;2022-12-24T01:43:17;23.92;;;11.75;;
73452;SDS011;61687;56.232;43.854;2022-12-24T01:45:55;25.90;;;12.35;;
73452;SDS011;61687;56.232;43.854;2022-12-24T01:53:58;28.93;;;12.27;;
73452;SDS011;61687;56.232;43.854;2022-12-24T01:56:30;27.58;;;11.68;;
73452;SDS011;61687;56.232;43.854;2022-12-24T01:59:05;28.35;;;13.02;;
73452;SDS011;61687;56.232;43.854;2022-12-24T02:01:35;27.65;;;13.05;;
73452;SDS011;61687;56.232;43.854;2022-12-24T02:04:02;29.60;;;14.00;;
73452;SDS011;61687;56.232;43.854;2022-12-24T02:06:33;28.93;;;12.43;;
73452;SDS011;61687;56.232;43.854;2022-12-24T02:08:59;26.40;;;13.05;;
73452;SDS011;61687;56.232;43.854;2022-12-24T02:11:25;25.98;;;12.90;;
73452;SDS011;61687;56.232;43.854;2022-12-24T02:13:52;27.80;;;13.80;;
73452;SDS011;61687;56.232;43.854;2022-12-24T02:16:26;26.05;;;13.95;;
73452;SDS011;61687;56.232;43.854;2022-12-24T02:40:48;32.10;;;15.52;;
73452;SDS011;61687;56.232;43.854;2022-12-24T02:43:21;32.10;;;15.73;;
73452;SDS011;61687;56.232;43.854;2022-12-24T02:45:57;33.47;;;15.75;;
73452;SDS011;61687;56.232;43.854;2022-12-24T02:48:25;36.83;;;15.45;;
73452;SDS011;61687;56.232;43.854;2022-12-24T02:50:58;33.53;;;15.35;;
73452;SDS011;61687;56.232;43.854;2022-12-24T02:53:30;38.03;;;16.27;;
73452;SDS011;61687;56.232;43.854;2022-12-24T02:55:59;36.78;;;16.13;;
73452;SDS011;61687;56.232;43.854;2022-12-24T02:59:04;37.58;;;15.93;;
73452;SDS011;61687;56.232;43.854;2022-12-24T03:07:22;35.47;;;16.08;;
73452;SDS011;61687;56.232;43.854;2022-12-24T03:12:40;37.58;;;16.20;;
73452;SDS011;61687;56.232;43.854;2022-12-24T03:15:10;34.58;;;15.10;;
73452;SDS011;61687;56.232;43.854;2022-12-24T03:17:39;32.75;;;14.73;;
73452;SDS011;61687;56.232;43.854;2022-12-24T03:20:09;33.28;;;15.13;;
73452;SDS011;61687;56.232;43.854;2022-12-24T03:22:37;36.00;;;15.80;;
73452;SDS011;61687;56.232;43.854;2022-12-24T03:25:04;36.00;;;15.75;;
73452;SDS011;61687;56.232;43.854;2022-12-24T03:27:30;36.42;;;15.40;;
73452;SDS011;61687;56.232;43.854;2022-12-24T03:29:59;35.08;;;16.50;;
73452;SDS011;61687;56.232;43.854;2022-12-24T03:32:30;40.30;;;16.65;;
73452;SDS011;61687;56.232;43.854;2022-12-24T03:34:57;40.20;;;16.70;;
73452;SDS011;61687;56.232;43.854;2022-12-24T03:37:23;37.25;;;16.00;;
73452;SDS011;61687;56.232;43.854;2022-12-24T03:39:50;37.05;;;14.77;;
73452;SDS011;61687;56.232;43.854;2022-12-24T03:42:16;36.28;;;15.55;;
73452;SDS011;61687;56.232;43.854;2022-12-24T03:44:42;37.90;;;16.35;;
73452;SDS011;61687;56.232;43.854;2022-12-24T03:47:08;38.10;;;16.65;;
73452;SDS011;61687;56.232;43.854;2022-12-24T03:49:33;35.85;;;15.82;;
73452;SDS011;61687;56.232;43.854;2022-12-24T03:51:59;35.77;;;15.00;;
73452;SDS011;61687;56.232;43.854;2022-12-24T03:54:25;42.33;;;16.73;;
73452;SDS011;61687;56.232;43.854;2022-12-24T03:56:51;39.78;;;16.52;;
73452;SDS011;61687;56.232;43.854;2022-12-24T03:59:17;40.43;;;16.77;;
73452;SDS011;61687;56.232;43.854;2022-12-24T04:01:43;39.20;;;16.02;;
73452;SDS011;61687;56.232;43.854;2022-12-24T04:04:09;38.38;;;16.80;;
73452;SDS011;61687;56.232;43.854;2022-12-24T04:06:35;44.03;;;17.17;;
73452;SDS011;61687;56.232;43.854;2022-12-24T04:09:01;38.97;;;17.20;;
73452;SDS011;61687;56.232;43.854;2022-12-24T04:11:29;41.90;;;17.42;;
73452;SDS011;61687;56.232;43.854;2022-12-24T04:13:57;42.47;;;17.85;;
73452;SDS011;61687;56.232;43.854;2022-12-24T04:16:23;49.47;;;18.20;;
73452;SDS011;61687;56.232;43.854;2022-12-24T04:18:49;39.77;;;15.80;;
73452;SDS011;61687;56.232;43.854;2022-12-24T04:21:15;42.20;;;17.45;;
73452;SDS011;61687;56.232;43.854;2022-12-24T04:23:41;41.40;;;16.90;;
73452;SDS011;61687;56.232;43.854;2022-12-24T04:26:09;42.20;;;17.02;;
73452;SDS011;61687;56.232;43.854;2022-12-24T04:28:36;42.92;;;15.73;;
73452;SDS011;61687;56.232;43.854;2022-12-24T04:31:04;40.00;;;16.23;;
73452;SDS011;61687;56.232;43.854;2022-12-24T04:33:32;43.67;;;17.73;;
73452;SDS011;61687;56.232;43.854;2022-12-24T04:35:59;37.45;;;16.45;;
73452;SDS011;61687;56.232;43.854;2022-12-24T04:38:27;42.60;;;16.60;;
73452;SDS011;61687;56.232;43.854;2022-12-24T04:41:00;36.50;;;16.13;;
73452;SDS011;61687;56.232;43.854;2022-12-24T04:43:28;40.42;;;16.88;;
73452;SDS011;61687;56.232;43.854;2022-12-24T04:45:54;38.83;;;16.38;;
73452;SDS011;61687;56.232;43.854;2022-12-24T04:48:20;39.85;;;16.27;;
73452;SDS011;61687;56.232;43.854;2022-12-24T04:50:47;38.05;;;16.42;;
73452;SDS011;61687;56.232;43.854;2022-12-24T04:53:13;36.17;;;16.25;;
73452;SDS011;61687;56.232;43.854;2022-12-24T04:55:43;38.10;;;16.73;;
73452;SDS011;61687;56.232;43.854;2022-12-24T04:58:10;38.53;;;15.82;;
73452;SDS011;61687;56.232;43.854;2022-12-24T05:00:36;43.15;;;16.67;;
73452;SDS011;61687;56.232;43.854;2022-12-24T05:03:02;36.20;;;15.80;;
73452;SDS011;61687;56.232;43.854;2022-12-24T05:05:28;40.05;;;17.00;;
73452;SDS011;61687;56.232;43.854;2022-12-24T05:07:54;35.80;;;15.93;;
73452;SDS011;61687;56.232;43.854;2022-12-24T05:10:20;34.40;;;14.90;;
73452;SDS011;61687;56.232;43.854;2022-12-24T05:12:46;36.70;;;15.93;;
73452;SDS011;61687;56.232;43.854;2022-12-24T05:15:12;36.58;;;15.50;;
73452;SDS011;61687;56.232;43.854;2022-12-24T05:17:38;32.80;;;15.45;;
73452;SDS011;61687;56.232;43.854;2022-12-24T05:20:04;36.63;;;15.07;;
73452;SDS011;61687;56.232;43.854;2022-12-24T05:22:31;35.88;;;14.45;;
73452;SDS011;61687;56.232;43.854;2022-12-24T05:25:15;36.53;;;14.02;;
73452;SDS011;61687;56.232;43.854;2022-12-24T05:27:59;29.75;;;13.57;;
73452;SDS011;61687;56.232;43.854;2022-12-24T05:30:25;34.58;;;14.23;;
73452;SDS011;61687;56.232;43.854;2022-12-24T05:32:51;33.58;;;14.10;;
73452;SDS011;61687;56.232;43.854;2022-12-24T05:35:17;34.42;;;14.82;;
73452;SDS011;61687;56.232;43.854;2022-12-24T05:37:42;38.70;;;14.83;;
73452;SDS011;61687;56.232;43.854;2022-12-24T05:40:08;37.85;;;15.27;;
73452;SDS011;61687;56.232;43.854;2022-12-24T05:42:34;37.53;;;14.95;;
73452;SDS011;61687;56.232;43.854;2022-12-24T05:45:00;38.17;;;15.60;;
73452;SDS011;61687;56.232;43.854;2022-12-24T05:47:28;40.30;;;16.05;;
73452;SDS011;61687;56.232;43.854;2022-12-24T05:49:54;33.90;;;14.35;;
73452;SDS011;61687;56.232;43.854;2022-12-24T05:52:20;36.20;;;14.60;;
73452;SDS011;61687;56.232;43.854;2022-12-24T05:54:46;35.38;;;13.40;;
73452;SDS011;61687;56.232;43.854;2022-12-24T05:57:12;39.17;;;13.95;;
73452;SDS011;61687;56.232;43.854;2022-12-24T05:59:38;38.93;;;15.33;;
73452;SDS011;61687;56.232;43.854;2022-12-24T06:02:03;37.53;;;15.77;;
73452;SDS011;61687;56.232;43.854;2022-12-24T06:04:29;38.93;;;16.93;;
73452;SDS011;61687;56.232;43.854;2022-12-24T06:06:55;39.60;;;15.40;;
73452;SDS011;61687;56.232;43.854;2022-12-24T06:09:21;43.75;;;15.77;;
73452;SDS011;61687;56.232;43.854;2022-12-24T06:11:47;42.10;;;17.17;;
73452;SDS011;61687;56.232;43.854;2022-12-24T06:14:13;44.78;;;15.20;;
73452;SDS011;61687;56.232;43.854;2022-12-24T06:16:38;43.35;;;17.08;;
73452;SDS011;61687;56.232;43.854;2022-12-24T06:19:04;46.37;;;17.17;;
73452;SDS011;61687;56.232;43.854;2022-12-24T06:21:30;44.13;;;17.30;;
73452;SDS011;61687;56.232;43.854;2022-12-24T06:23:56;43.33;;;17.03;;
73452;SDS011;61687;56.232;43.854;2022-12-24T06:26:22;40.13;;;16.63;;
73452;SDS011;61687;56.232;43.854;2022-12-24T06:28:48;44.15;;;17.15;;
73452;SDS011;61687;56.232;43.854;2022-12-24T06:31:16;44.70;;;17.83;;
73452;SDS011;61687;56.232;43.854;2022-12-24T06:33:44;47.05;;;16.98;;
73452;SDS011;61687;56.232;43.854;2022-12-24T06:36:28;44.47;;;18.15;;
73452;SDS011;61687;56.232;43.854;2022-12-24T06:38:54;46.90;;;18.25;;
73452;SDS011;61687;56.232;43.854;2022-12-24T06:41:20;42.00;;;15.75;;
73452;SDS011;61687;56.232;43.854;2022-12-24T06:43:47;43.85;;;16.92;;
73452;SDS011;61687;56.232;43.854;2022-12-24T06:46:14;45.03;;;16.88;;
73452;SDS011;61687;56.232;43.854;2022-12-24T06:48:41;44.45;;;16.45;;
73452;SDS011;61687;56.232;43.854;2022-12-24T06:51:11;47.75;;;18.25;;
73452;SDS011;61687;56.232;43.854;2022-12-24T06:53:38;46.47;;;17.38;;
73452;SDS011;61687;56.232;43.854;2022-12-24T06:56:04;41.90;;;17.17;;
73452;SDS011;61687;56.232;43.854;2022-12-24T06:58:35;47.83;;;18.13;;
73452;SDS011;61687;56.232;43.854;2022-12-24T07:01:02;47.85;;;18.67;;
73452;SDS011;61687;56.232;43.854;2022-12-24T07:03:29;47.45;;;18.58;;
73452;SDS011;61687;56.232;43.854;2022-12-24T07:05:56;43.40;;;17.85;;
73452;SDS011;61687;56.232;43.854;2022-12-24T07:08:22;48.10;;;18.50;;
73452;SDS011;61687;56.232;43.854;2022-12-24T07:10:48;48.03;;;17.63;;
73452;SDS011;61687;56.232;43.854;2022-12-24T07:13:15;45.53;;;17.77;;
73452;SDS011;61687;56.232;43.854;2022-12-24T07:15:41;53.85;;;19.25;;
73452;SDS011;61687;56.232;43.854;2022-12-24T07:18:07;46.20;;;17.83;;
73452;SDS011;61687;56.232;43.854;2022-12-24T07:20:33;43.47;;;16.80;;
73452;SDS011;61687;56.232;43.854;2022-12-24T07:22:59;47.78;;;16.90;;
73452;SDS011;61687;56.232;43.854;2022-12-24T07:25:25;48.25;;;18.23;;
73452;SDS011;61687;56.232;43.854;2022-12-24T07:27:51;51.25;;;17.38;;
73452;SDS011;61687;56.232;43.854;2022-12-24T07:30:17;50.42;;;18.35;;
73452;SDS011;61687;56.232;43.854;2022-12-24T07:32:43;50.90;;;18.95;;
73452;SDS011;61687;56.232;43.854;2022-12-24T07:35:09;48.67;;;18.52;;
73452;SDS011;61687;56.232;43.854;2022-12-24T07:37:35;50.88;;;19.30;;
73452;SDS011;61687;56.232;43.854;2022-12-24T07:40:00;51.40;;;19.60;;
73452;SDS011;61687;56.232;43.854;2022-12-24T07:42:28;49.78;;;18.70;;
73452;SDS011;61687;56.232;43.854;2022-12-24T07:44:54;51.97;;;19.03;;
73452;SDS011;61687;56.232;43.854;2022-12-24T07:47:20;50.78;;;18.60;;
73452;SDS011;61687;56.232;43.854;2022-12-24T07:49:45;50.43;;;18.23;;
73452;SDS011;61687;56.232;43.854;2022-12-24T07:52:11;50.50;;;18.55;;
73452;SDS011;61687;56.232;43.854;2022-12-24T07:54:37;52.13;;;18.92;;
73452;SDS011;61687;56.232;43.854;2022-12-24T07:57:03;45.20;;;17.33;;
73452;SDS011;61687;56.232;43.854;2022-12-24T07:59:29;52.28;;;19.42;;
73452;SDS011;61687;56.232;43.854;2022-12-24T08:01:55;47.95;;;18.10;;
73452;SDS011;61687;56.232;43.854;2022-12-24T08:04:21;50.45;;;18.23;;
73452;SDS011;61687;56.232;43.854;2022-12-24T08:06:46;48.07;;;18.57;;
73452;SDS011;61687;56.232;43.854;2022-12-24T08:09:12;51.42;;;18.67;;
73452;SDS011;61687;56.232;43.854;2022-12-24T08:11:39;49.50;;;18.33;;
73452;SDS011;61687;56.232;43.854;2022-12-24T08:14:05;51.17;;;18.13;;
73452;SDS011;61687;56.232;43.854;2022-12-24T08:16:31;44.25;;;17.98;;
73452;SDS011;61687;56.232;43.854;2022-12-24T08:19:01;50.35;;;19.02;;
73452;SDS011;61687;56.232;43.854;2022-12-24T08:21:29;51.97;;;19.45;;
73452;SDS011;61687;56.232;43.854;2022-12-24T08:23:55;46.40;;;18.45;;
73452;SDS011;61687;56.232;43.854;2022-12-24T08:26:21;50.00;;;19.23;;
73452;SDS011;61687;56.232;43.854;2022-12-24T08:28:47;49.40;;;18.67;;
73452;SDS011;61687;56.232;43.854;2022-12-24T08:31:12;48.15;;;17.77;;
73452;SDS011;61687;56.232;43.854;2022-12-24T08:33:40;51.33;;;18.58;;
73452;SDS011;61687;56.232;43.854;2022-12-24T08:36:06;43.67;;;18.53;;
73452;SDS011;61687;56.232;43.854;2022-12-24T08:38:32;51.17;;;20.23;;
73452;SDS011;61687;56.232;43.854;2022-12-24T08:40:57;48.08;;;17.90;;
73452;SDS011;61687;56.232;43.854;2022-12-24T08:43:23;44.93;;;18.63;;
73452;SDS011;61687;56.232;43.854;2022-12-24T08:45:52;44.00;;;18.10;;
73452;SDS011;61687;56.232;43.854;2022-12-24T08:48:18;44.38;;;19.67;;
73452;SDS011;61687;56.232;43.854;2022-12-24T08:50:44;49.75;;;19.70;;
73452;SDS011;61687;56.232;43.854;2022-12-24T08:53:10;45.20;;;17.67;;
73452;SDS011;61687;56.232;43.854;2022-12-24T08:55:36;42.47;;;17.42;;
73452;SDS011;61687;56.232;43.854;2022-12-24T08:58:02;46.00;;;17.65;;
73452;SDS011;61687;56.232;43.854;2022-12-24T09:00:28;42.90;;;18.20;;
73452;SDS011;61687;56.232;43.854;2022-12-24T09:02:55;42.20;;;17.23;;
73452;SDS011;61687;56.232;43.854;2022-12-24T09:05:21;43.60;;;16.65;;
73452;SDS011;61687;56.232;43.854;2022-12-24T09:07:48;44.92;;;16.40;;
73452;SDS011;61687;56.232;43.854;2022-12-24T09:10:13;45.10;;;16.40;;
73452;SDS011;61687;56.232;43.854;2022-12-24T09:12:39;47.95;;;17.75;;
73452;SDS011;61687;56.232;43.854;2022-12-24T09:15:05;44.42;;;18.25;;
73452;SDS011;61687;56.232;43.854;2022-12-24T09:17:32;43.70;;;17.30;;
73452;SDS011;61687;56.232;43.854;2022-12-24T09:19:59;43.20;;;17.65;;
73452;SDS011;61687;56.232;43.854;2022-12-24T09:22:25;42.67;;;17.13;;
73452;SDS011;61687;56.232;43.854;2022-12-24T09:24:52;39.95;;;16.95;;
73452;SDS011;61687;56.232;43.854;2022-12-24T09:27:18;42.33;;;15.73;;
73452;SDS011;61687;56.232;43.854;2022-12-24T09:29:44;39.13;;;15.85;;
73452;SDS011;61687;56.232;43.854;2022-12-24T09:32:10;35.40;;;15.88;;
73452;SDS011;61687;56.232;43.854;2022-12-24T09:34:36;37.13;;;16.30;;
73452;SDS011;61687;56.232;43.854;2022-12-24T09:37:02;38.63;;;15.93;;
73452;SDS011;61687;56.232;43.854;2022-12-24T09:39:28;36.80;;;15.07;;
73452;SDS011;61687;56.232;43.854;2022-12-24T09:42:14;40.25;;;15.77;;
73452;SDS011;61687;56.232;43.854;2022-12-24T09:47:21;37.42;;;15.05;;
73452;SDS011;61687;56.232;43.854;2022-12-24T09:49:52;37.72;;;14.93;;
73452;SDS011;61687;56.232;43.854;2022-12-24T09:52:32;36.95;;;13.85;;
73452;SDS011;61687;56.232;43.854;2022-12-24T09:57:50;37.43;;;15.37;;
73452;SDS011;61687;56.232;43.854;2022-12-24T10:00:27;39.45;;;14.95;;
73452;SDS011;61687;56.232;43.854;2022-12-24T10:02:54;43.70;;;16.90;;
73452;SDS011;61687;56.232;43.854;2022-12-24T10:11:14;38.83;;;15.30;;
73452;SDS011;61687;56.232;43.854;2022-12-24T10:13:55;38.33;;;15.07;;
73452;SDS011;61687;56.232;43.854;2022-12-24T10:16:53;35.38;;;14.82;;
73452;SDS011;61687;56.232;43.854;2022-12-24T10:19:42;34.45;;;14.23;;
73452;SDS011;61687;56.232;43.854;2022-12-24T10:22:19;41.92;;;16.50;;
73452;SDS011;61687;56.232;43.854;2022-12-24T10:25:02;38.40;;;13.33;;
73452;SDS011;61687;56.232;43.854;2022-12-24T10:27:31;37.30;;;14.52;;
73452;SDS011;61687;56.232;43.854;2022-12-24T10:30:03;39.50;;;15.32;;
73452;SDS011;61687;56.232;43.854;2022-12-24T10:32:38;39.08;;;15.40;;
73452;SDS011;61687;56.232;43.854;2022-12-24T10:35:14;41.65;;;16.95;;
73452;SDS011;61687;56.232;43.854;2022-12-24T10:37:46;39.73;;;15.60;;
73452;SDS011;61687;56.232;43.854;2022-12-24T10:40:13;39.75;;;15.40;;
73452;SDS011;61687;56.232;43.854;2022-12-24T10:42:46;40.22;;;16.67;;
73452;SDS011;61687;56.232;43.854;2022-12-24T10:45:13;37.28;;;16.13;;
73452;SDS011;61687;56.232;43.854;2022-12-24T10:47:47;32.78;;;14.30;;
73452;SDS011;61687;56.232;43.854;2022-12-24T10:52:52;40.75;;;16.75;;
73452;SDS011;61687;56.232;43.854;2022-12-24T10:55:23;37.95;;;15.57;;
73452;SDS011;61687;56.232;43.854;2022-12-24T10:58:01;40.88;;;15.57;;
73452;SDS011;61687;56.232;43.854;2022-12-24T11:00:30;41.15;;;15.25;;
73452;SDS011;61687;56.232;43.854;2022-12-24T11:05:38;39.88;;;14.98;;
73452;SDS011;61687;56.232;43.854;2022-12-24T11:08:09;44.33;;;15.73;;
73452;SDS011;61687;56.232;43.854;2022-12-24T11:10:53;38.08;;;14.93;;
73452;SDS011;61687;56.232;43.854;2022-12-24T11:13:25;40.45;;;16.08;;
73452;SDS011;61687;56.232;43.854;2022-12-24T11:16:05;44.10;;;15.63;;
73452;SDS011;61687;56.232;43.854;2022-12-24T11:18:36;42.63;;;16.10;;
73452;SDS011;61687;56.232;43.854;2022-12-24T11:21:08;41.83;;;17.00;;
73452;SDS011;61687;56.232;43.854;2022-12-24T11:23:34;38.90;;;14.95;;
73452;SDS011;61687;56.232;43.854;2022-12-24T11:26:01;41.15;;;17.08;;
73452;SDS011;61687;56.232;43.854;2022-12-24T11:28:28;34.83;;;15.95;;
73452;SDS011;61687;56.232;43.854;2022-12-24T11:30:59;45.53;;;15.75;;
73452;SDS011;61687;56.232;43.854;2022-12-24T11:33:46;37.72;;;15.07;;
73452;SDS011;61687;56.232;43.854;2022-12-24T11:36:15;36.50;;;15.45;;
73452;SDS011;61687;56.232;43.854;2022-12-24T11:38:56;43.55;;;18.02;;
73452;SDS011;61687;56.232;43.854;2022-12-24T11:41:23;44.17;;;16.48;;
73452;SDS011;61687;56.232;43.854;2022-12-24T11:43:56;44.17;;;17.52;;
73452;SDS011;61687;56.232;43.854;2022-12-24T11:46:35;37.15;;;15.38;;
73452;SDS011;61687;56.232;43.854;2022-12-24T11:51:38;39.10;;;16.88;;
73452;SDS011;61687;56.232;43.854;2022-12-24T11:54:15;38.53;;;15.63;;
73452;SDS011;61687;56.232;43.854;2022-12-24T11:56:50;39.40;;;15.25;;
73452;SDS011;61687;56.232;43.854;2022-12-24T11:59:21;37.45;;;14.93;;
73452;SDS011;61687;56.232;43.854;2022-12-24T12:01:57;37.97;;;15.52;;
73452;SDS011;61687;56.232;43.854;2022-12-24T12:04:38;38.15;;;15.07;;
73452;SDS011;61687;56.232;43.854;2022-12-24T12:09:40;39.55;;;14.93;;
73452;SDS011;61687;56.232;43.854;2022-12-24T12:12:14;31.15;;;13.27;;
73452;SDS011;61687;56.232;43.854;2022-12-24T12:14:47;38.70;;;15.82;;
73452;SDS011;61687;56.232;43.854;2022-12-24T12:22:41;37.72;;;14.43;;
73452;SDS011;61687;56.232;43.854;2022-12-24T12:28:13;35.30;;;15.05;;
73452;SDS011;61687;56.232;43.854;2022-12-24T12:30:44;34.65;;;14.27;;
73452;SDS011;61687;56.232;43.854;2022-12-24T12:33:18;32.83;;;14.63;;
73452;SDS011;61687;56.232;43.854;2022-12-24T12:35:53;36.00;;;14.68;;
73452;SDS011;61687;56.232;43.854;2022-12-24T12:38:24;35.88;;;15.15;;
73452;SDS011;61687;56.232;43.854;2022-12-24T12:41:00;36.20;;;15.77;;
73452;SDS011;61687;56.232;43.854;2022-12-24T12:43:54;37.55;;;15.95;;
73452;SDS011;61687;56.232;43.854;2022-12-24T12:46:41;37.25;;;15.10;;
73452;SDS011;61687;56.232;43.854;2022-12-24T12:52:13;41.25;;;16.88;;
73452;SDS011;61687;56.232;43.854;2022-12-24T12:57:40;35.50;;;14.00;;
73452;SDS011;61687;56.232;43.854;2022-12-24T13:00:11;40.55;;;15.20;;
73452;SDS011;61687;56.232;43.854;2022-12-24T13:05:18;36.97;;;15.02;;
73452;SDS011;61687;56.232;43.854;2022-12-24T13:07:50;38.00;;;15.57;;
73452;SDS011;61687;56.232;43.854;2022-12-24T13:16:22;40.80;;;16.90;;
73452;SDS011;61687;56.232;43.854;2022-12-24T13:21:53;36.85;;;16.17;;
73452;SDS011;61687;56.232;43.854;2022-12-24T13:24:24;38.35;;;15.55;;
73452;SDS011;61687;56.232;43.854;2022-12-24T13:29:30;34.80;;;14.90;;
73452;SDS011;61687;56.232;43.854;2022-12-24T13:34:50;34.88;;;14.77;;
73452;SDS011;61687;56.232;43.854;2022-12-24T13:40:02;34.47;;;14.65;;
73452;SDS011;61687;56.232;43.854;2022-12-24T13:47:57;35.70;;;15.30;;
73452;SDS011;61687;56.232;43.854;2022-12-24T13:50:39;33.33;;;13.60;;
73452;SDS011;61687;56.232;43.854;2022-12-24T13:58:20;31.73;;;13.80;;
73452;SDS011;61687;56.232;43.854;2022-12-24T14:00:52;36.25;;;15.43;;
73452;SDS011;61687;56.232;43.854;2022-12-24T14:06:12;30.73;;;14.68;;
73452;SDS011;61687;56.232;43.854;2022-12-24T14:09:08;33.42;;;14.48;;
73452;SDS011;61687;56.232;43.854;2022-12-24T14:17:00;29.90;;;13.23;;
73452;SDS011;61687;56.232;43.854;2022-12-24T14:19:42;29.98;;;13.82;;
73452;SDS011;61687;56.232;43.854;2022-12-24T14:24:52;31.08;;;14.95;;
73452;SDS011;61687;56.232;43.854;2022-12-24T14:28:05;31.55;;;14.02;;
73452;SDS011;61687;56.232;43.854;2022-12-24T14:30:21;30.27;;;14.07;;
73452;SDS011;61687;56.232;43.854;2022-12-24T14:32:49;26.50;;;12.85;;
73452;SDS011;61687;56.232;43.854;2022-12-24T14:35:17;26.45;;;11.38;;
73452;SDS011;61687;56.232;43.854;2022-12-24T14:37:50;27.15;;;12.60;;
73452;SDS011;61687;56.232;43.854;2022-12-24T14:40:28;21.35;;;10.55;;
73452;SDS011;61687;56.232;43.854;2022-12-24T14:45:47;25.15;;;11.60;;
73452;SDS011;61687;56.232;43.854;2022-12-24T14:51:20;23.25;;;10.52;;
73452;SDS011;61687;56.232;43.854;2022-12-24T14:54:02;19.02;;;9.93;;
73452;SDS011;61687;56.232;43.854;2022-12-24T15:02:21;14.75;;;8.30;;
73452;SDS011;61687;56.232;43.854;2022-12-24T15:05:02;16.67;;;8.57;;
73452;SDS011;61687;56.232;43.854;2022-12-24T15:07:38;14.00;;;7.55;;
73452;SDS011;61687;56.232;43.854;2022-12-24T15:10:18;14.43;;;7.82;;
73452;SDS011;61687;56.232;43.854;2022-12-24T15:12:50;12.13;;;7.05;;
73452;SDS011;61687;56.232;43.854;2022-12-24T15:15:18;13.45;;;8.05;;
73452;SDS011;61687;56.232;43.854;2022-12-24T15:17:44;11.40;;;6.70;;
73452;SDS011;61687;56.232;43.854;2022-12-24T15:20:15;11.75;;;6.40;;
73452;SDS011;61687;56.232;43.854;2022-12-24T15:22:43;12.13;;;6.68;;
73452;SDS011;61687;56.232;43.854;2022-12-24T15:25:18;11.95;;;6.50;;
73452;SDS011;61687;56.232;43.854;2022-12-24T15:27:46;11.02;;;6.45;;
73452;SDS011;61687;56.232;43.854;2022-12-24T15:30:13;11.98;;;6.25;;
73452;SDS011;61687;56.232;43.854;2022-12-24T15:32:41;11.13;;;5.93;;
73452;SDS011;61687;56.232;43.854;2022-12-24T15:35:28;12.00;;;7.13;;
73452;SDS011;61687;56.232;43.854;2022-12-24T15:37:58;11.95;;;6.80;;
73452;SDS011;61687;56.232;43.854;2022-12-24T15:40:25;11.60;;;7.05;;
73452;SDS011;61687;56.232;43.854;2022-12-24T15:42:52;13.55;;;6.95;;
73452;SDS011;61687;56.232;43.854;2022-12-24T15:45:22;11.55;;;7.18;;
73452;SDS011;61687;56.232;43.854;2022-12-24T15:47:52;12.50;;;7.00;;
73452;SDS011;61687;56.232;43.854;2022-12-24T15:50:50;12.57;;;6.95;;
73452;SDS011;61687;56.232;43.854;2022-12-24T15:53:21;12.15;;;7.03;;
73452;SDS011;61687;56.232;43.854;2022-12-24T15:58:33;12.63;;;6.93;;
73452;SDS011;61687;56.232;43.854;2022-12-24T16:06:13;14.38;;;7.68;;
73452;SDS011;61687;56.232;43.854;2022-12-24T16:08:41;14.48;;;6.97;;
73452;SDS011;61687;56.232;43.854;2022-12-24T16:11:18;13.95;;;7.95;;
73452;SDS011;61687;56.232;43.854;2022-12-24T16:16:48;13.65;;;7.30;;
73452;SDS011;61687;56.232;43.854;2022-12-24T16:19:17;12.40;;;6.90;;
73452;SDS011;61687;56.232;43.854;2022-12-24T16:21:50;13.50;;;7.40;;
73452;SDS011;61687;56.232;43.854;2022-12-24T16:26:51;12.83;;;7.60;;
73452;SDS011;61687;56.232;43.854;2022-12-24T16:29:18;13.30;;;7.43;;
73452;SDS011;61687;56.232;43.854;2022-12-24T16:31:45;15.10;;;7.90;;
73452;SDS011;61687;56.232;43.854;2022-12-24T16:34:17;12.93;;;7.55;;
73452;SDS011;61687;56.232;43.854;2022-12-24T16:36:45;13.23;;;7.20;;
73452;SDS011;61687;56.232;43.854;2022-12-24T16:39:15;12.33;;;6.47;;
73452;SDS011;61687;56.232;43.854;2022-12-24T16:41:50;12.13;;;6.50;;
73452;SDS011;61687;56.232;43.854;2022-12-24T16:44:39;13.30;;;7.13;;